sensor_id;sensor_type;location;lat;lon;timestamp;temperature;humidity
25482;DHT22;13395;50.752;4.268;2023-04-25T00:01:03;10.20;99.90
25482;DHT22;13395;50.752;4.268;2023-04-25T00:03:29;10.20;99.90
25482;DHT22;13395;50.752;4.268;2023-04-25T00:05:54;10.30;99.90
25482;DHT22;13395;50.752;4.268;2023-04-25T00:08:22;10.30;99.90
25482;DHT22;13395;50.752;4.268;2023-04-25T00:10:47;10.30;99.90
25482;DHT22;13395;50.752;4.268;2023-04-25T00:13:14;10.30;99.90
25482;DHT22;13395;50.752;4.268;2023-04-25T00:15:40;10.30;99.90
25482;DHT22;13395;50.752;4.268;2023-04-25T00:18:07;10.30;99.90
25482;DHT22;13395;50.752;4.268;2023-04-25T00:20:32;10.30;99.90
25482;DHT22;13395;50.752;4.268;2023-04-25T00:22:58;10.20;99.90
25482;DHT22;13395;50.752;4.268;2023-04-25T00:25:23;10.20;99.90
25482;DHT22;13395;50.752;4.268;2023-04-25T00:27:49;10.20;99.90
25482;DHT22;13395;50.752;4.268;2023-04-25T00:30:14;10.10;99.90
25482;DHT22;13395;50.752;4.268;2023-04-25T00:32:40;10.00;99.90
25482;DHT22;13395;50.752;4.268;2023-04-25T00:35:05;10.00;99.90
25482;DHT22;13395;50.752;4.268;2023-04-25T00:37:31;10.10;99.90
25482;DHT22;13395;50.752;4.268;2023-04-25T00:39:57;10.20;99.90
25482;DHT22;13395;50.752;4.268;2023-04-25T00:42:23;10.20;99.90
25482;DHT22;13395;50.752;4.268;2023-04-25T00:44:49;10.10;99.90
25482;DHT22;13395;50.752;4.268;2023-04-25T00:47:15;10.10;99.90
25482;DHT22;13395;50.752;4.268;2023-04-25T00:49:40;10.10;99.90
25482;DHT22;13395;50.752;4.268;2023-04-25T00:52:06;10.10;99.90
25482;DHT22;13395;50.752;4.268;2023-04-25T00:54:31;10.00;99.90
25482;DHT22;13395;50.752;4.268;2023-04-25T00:56:57;10.00;99.90
25482;DHT22;13395;50.752;4.268;2023-04-25T00:59:22;10.00;99.90
25482;DHT22;13395;50.752;4.268;2023-04-25T01:01:49;10.00;99.90
25482;DHT22;13395;50.752;4.268;2023-04-25T01:04:14;10.00;99.90
25482;DHT22;13395;50.752;4.268;2023-04-25T01:06:40;9.90;99.90
25482;DHT22;13395;50.752;4.268;2023-04-25T01:09:05;9.80;99.90
25482;DHT22;13395;50.752;4.268;2023-04-25T01:11:31;9.70;99.90
25482;DHT22;13395;50.752;4.268;2023-04-25T01:13:56;9.70;99.90
25482;DHT22;13395;50.752;4.268;2023-04-25T01:16:23;9.80;99.90
25482;DHT22;13395;50.752;4.268;2023-04-25T01:18:49;9.80;99.90
25482;DHT22;13395;50.752;4.268;2023-04-25T01:21:15;9.70;99.90
25482;DHT22;13395;50.752;4.268;2023-04-25T01:23:41;9.70;99.90
25482;DHT22;13395;50.752;4.268;2023-04-25T01:26:10;9.70;99.90
25482;DHT22;13395;50.752;4.268;2023-04-25T01:28:37;9.60;99.90
25482;DHT22;13395;50.752;4.268;2023-04-25T01:31:03;9.70;99.90
25482;DHT22;13395;50.752;4.268;2023-04-25T01:33:29;9.70;99.90
25482;DHT22;13395;50.752;4.268;2023-04-25T01:35:55;9.70;99.90
25482;DHT22;13395;50.752;4.268;2023-04-25T01:38:20;9.70;99.90
25482;DHT22;13395;50.752;4.268;2023-04-25T01:40:46;9.70;99.90
25482;DHT22;13395;50.752;4.268;2023-04-25T01:43:14;9.70;99.90
25482;DHT22;13395;50.752;4.268;2023-04-25T01:45:41;9.60;99.90
25482;DHT22;13395;50.752;4.268;2023-04-25T01:48:07;9.60;99.90
25482;DHT22;13395;50.752;4.268;2023-04-25T01:50:32;9.60;99.90
25482;DHT22;13395;50.752;4.268;2023-04-25T01:52:58;9.60;99.90
25482;DHT22;13395;50.752;4.268;2023-04-25T01:55:24;9.60;99.90
25482;DHT22;13395;50.752;4.268;2023-04-25T01:57:49;9.50;99.90
25482;DHT22;13395;50.752;4.268;2023-04-25T02:00:15;9.50;99.90
25482;DHT22;13395;50.752;4.268;2023-04-25T02:02:40;9.60;99.90
25482;DHT22;13395;50.752;4.268;2023-04-25T02:05:06;9.50;99.90
25482;DHT22;13395;50.752;4.268;2023-04-25T02:07:32;9.60;99.90
25482;DHT22;13395;50.752;4.268;2023-04-25T02:09:57;9.60;99.90
25482;DHT22;13395;50.752;4.268;2023-04-25T02:12:23;9.50;99.90
25482;DHT22;13395;50.752;4.268;2023-04-25T02:14:48;9.50;99.90
25482;DHT22;13395;50.752;4.268;2023-04-25T02:17:14;9.50;99.90
25482;DHT22;13395;50.752;4.268;2023-04-25T02:19:39;9.60;99.90
25482;DHT22;13395;50.752;4.268;2023-04-25T02:22:05;9.50;99.90
25482;DHT22;13395;50.752;4.268;2023-04-25T02:24:30;9.50;99.90
25482;DHT22;13395;50.752;4.268;2023-04-25T02:26:57;9.50;99.90
25482;DHT22;13395;50.752;4.268;2023-04-25T02:29:22;9.50;99.90
25482;DHT22;13395;50.752;4.268;2023-04-25T02:31:48;9.50;99.90
25482;DHT22;13395;50.752;4.268;2023-04-25T02:34:13;9.40;99.90
25482;DHT22;13395;50.752;4.268;2023-04-25T02:36:39;9.40;99.90
25482;DHT22;13395;50.752;4.268;2023-04-25T02:39:04;9.50;99.90
25482;DHT22;13395;50.752;4.268;2023-04-25T02:41:30;9.50;99.90
25482;DHT22;13395;50.752;4.268;2023-04-25T02:43:55;9.50;99.90
25482;DHT22;13395;50.752;4.268;2023-04-25T02:46:21;9.50;99.90
25482;DHT22;13395;50.752;4.268;2023-04-25T02:48:46;9.50;99.90
25482;DHT22;13395;50.752;4.268;2023-04-25T02:51:12;9.50;99.90
25482;DHT22;13395;50.752;4.268;2023-04-25T02:53:37;9.50;99.90
25482;DHT22;13395;50.752;4.268;2023-04-25T02:56:03;9.50;99.90
25482;DHT22;13395;50.752;4.268;2023-04-25T02:58:29;9.40;99.90
25482;DHT22;13395;50.752;4.268;2023-04-25T03:00:54;9.50;99.90
25482;DHT22;13395;50.752;4.268;2023-04-25T03:03:20;9.50;99.90
25482;DHT22;13395;50.752;4.268;2023-04-25T03:05:49;9.50;99.90
25482;DHT22;13395;50.752;4.268;2023-04-25T03:08:15;9.50;99.90
25482;DHT22;13395;50.752;4.268;2023-04-25T03:10:41;9.50;99.90
25482;DHT22;13395;50.752;4.268;2023-04-25T03:13:06;9.60;99.90
25482;DHT22;13395;50.752;4.268;2023-04-25T03:15:32;9.60;99.90
25482;DHT22;13395;50.752;4.268;2023-04-25T03:17:57;9.50;99.90
25482;DHT22;13395;50.752;4.268;2023-04-25T03:20:23;9.60;99.90
25482;DHT22;13395;50.752;4.268;2023-04-25T03:22:48;9.60;99.90
25482;DHT22;13395;50.752;4.268;2023-04-25T03:25:14;9.60;99.90
25482;DHT22;13395;50.752;4.268;2023-04-25T03:27:39;9.50;99.90
25482;DHT22;13395;50.752;4.268;2023-04-25T03:30:05;9.50;99.90
25482;DHT22;13395;50.752;4.268;2023-04-25T03:32:31;9.40;99.90
25482;DHT22;13395;50.752;4.268;2023-04-25T03:34:57;9.40;99.90
25482;DHT22;13395;50.752;4.268;2023-04-25T03:37:22;9.40;99.90
25482;DHT22;13395;50.752;4.268;2023-04-25T03:39:48;9.40;99.90
25482;DHT22;13395;50.752;4.268;2023-04-25T03:42:13;9.40;99.90
25482;DHT22;13395;50.752;4.268;2023-04-25T03:44:39;9.30;99.90
25482;DHT22;13395;50.752;4.268;2023-04-25T03:47:05;9.30;99.90
25482;DHT22;13395;50.752;4.268;2023-04-25T03:49:32;9.20;99.90
25482;DHT22;13395;50.752;4.268;2023-04-25T03:51:57;9.20;99.90
25482;DHT22;13395;50.752;4.268;2023-04-25T03:54:23;9.30;99.90
25482;DHT22;13395;50.752;4.268;2023-04-25T03:56:48;9.20;99.90
25482;DHT22;13395;50.752;4.268;2023-04-25T03:59:14;9.30;99.90
25482;DHT22;13395;50.752;4.268;2023-04-25T04:01:39;9.20;99.90
25482;DHT22;13395;50.752;4.268;2023-04-25T04:04:05;9.20;99.90
25482;DHT22;13395;50.752;4.268;2023-04-25T04:06:30;9.20;99.90
25482;DHT22;13395;50.752;4.268;2023-04-25T04:08:56;9.20;99.90
25482;DHT22;13395;50.752;4.268;2023-04-25T04:11:22;9.20;99.90
25482;DHT22;13395;50.752;4.268;2023-04-25T04:13:47;9.10;99.90
25482;DHT22;13395;50.752;4.268;2023-04-25T04:16:13;9.10;99.90
25482;DHT22;13395;50.752;4.268;2023-04-25T04:18:38;9.10;99.90
25482;DHT22;13395;50.752;4.268;2023-04-25T04:21:04;9.10;99.90
25482;DHT22;13395;50.752;4.268;2023-04-25T04:23:29;9.10;99.90
25482;DHT22;13395;50.752;4.268;2023-04-25T04:25:55;9.10;99.90
25482;DHT22;13395;50.752;4.268;2023-04-25T04:28:21;9.10;99.90
25482;DHT22;13395;50.752;4.268;2023-04-25T04:30:47;9.20;99.90
25482;DHT22;13395;50.752;4.268;2023-04-25T04:33:13;9.10;99.90
25482;DHT22;13395;50.752;4.268;2023-04-25T04:35:40;9.10;99.90
25482;DHT22;13395;50.752;4.268;2023-04-25T04:38:06;9.20;99.90
25482;DHT22;13395;50.752;4.268;2023-04-25T04:40:32;9.10;99.90
25482;DHT22;13395;50.752;4.268;2023-04-25T04:42:58;9.10;99.90
25482;DHT22;13395;50.752;4.268;2023-04-25T04:45:23;9.10;99.90
25482;DHT22;13395;50.752;4.268;2023-04-25T04:47:49;9.10;99.90
25482;DHT22;13395;50.752;4.268;2023-04-25T04:50:15;9.10;99.90
25482;DHT22;13395;50.752;4.268;2023-04-25T04:52:41;9.00;99.90
25482;DHT22;13395;50.752;4.268;2023-04-25T04:55:07;9.00;99.90
25482;DHT22;13395;50.752;4.268;2023-04-25T04:57:33;9.10;99.90
25482;DHT22;13395;50.752;4.268;2023-04-25T04:59:59;9.10;99.90
25482;DHT22;13395;50.752;4.268;2023-04-25T05:02:25;9.10;99.90
25482;DHT22;13395;50.752;4.268;2023-04-25T05:04:51;9.10;99.90
25482;DHT22;13395;50.752;4.268;2023-04-25T05:07:17;9.20;99.90
25482;DHT22;13395;50.752;4.268;2023-04-25T05:09:42;9.20;99.90
25482;DHT22;13395;50.752;4.268;2023-04-25T05:12:08;9.20;99.90
25482;DHT22;13395;50.752;4.268;2023-04-25T05:14:33;9.20;99.90
25482;DHT22;13395;50.752;4.268;2023-04-25T05:16:59;9.10;99.90
25482;DHT22;13395;50.752;4.268;2023-04-25T05:19:25;9.10;99.90
25482;DHT22;13395;50.752;4.268;2023-04-25T05:21:50;9.10;99.90
25482;DHT22;13395;50.752;4.268;2023-04-25T05:24:16;9.00;99.90
25482;DHT22;13395;50.752;4.268;2023-04-25T05:26:41;9.00;99.90
25482;DHT22;13395;50.752;4.268;2023-04-25T05:29:07;9.00;99.90
25482;DHT22;13395;50.752;4.268;2023-04-25T05:31:33;9.00;99.90
25482;DHT22;13395;50.752;4.268;2023-04-25T05:33:58;9.00;99.90
25482;DHT22;13395;50.752;4.268;2023-04-25T05:36:24;9.00;99.90
25482;DHT22;13395;50.752;4.268;2023-04-25T05:38:49;9.00;99.90
25482;DHT22;13395;50.752;4.268;2023-04-25T05:41:15;9.00;99.90
25482;DHT22;13395;50.752;4.268;2023-04-25T05:43:40;9.00;99.90
25482;DHT22;13395;50.752;4.268;2023-04-25T05:46:10;9.00;99.90
25482;DHT22;13395;50.752;4.268;2023-04-25T05:48:37;9.00;99.90
25482;DHT22;13395;50.752;4.268;2023-04-25T05:51:02;9.00;99.90
25482;DHT22;13395;50.752;4.268;2023-04-25T05:53:28;9.00;99.90
25482;DHT22;13395;50.752;4.268;2023-04-25T05:55:53;9.00;99.90
25482;DHT22;13395;50.752;4.268;2023-04-25T05:58:19;9.00;99.90
25482;DHT22;13395;50.752;4.268;2023-04-25T06:00:44;8.90;99.90
25482;DHT22;13395;50.752;4.268;2023-04-25T06:03:11;8.90;99.90
25482;DHT22;13395;50.752;4.268;2023-04-25T06:05:38;8.90;99.90
25482;DHT22;13395;50.752;4.268;2023-04-25T06:08:04;9.00;99.90
25482;DHT22;13395;50.752;4.268;2023-04-25T06:10:29;9.00;99.90
25482;DHT22;13395;50.752;4.268;2023-04-25T06:12:55;9.20;99.90
25482;DHT22;13395;50.752;4.268;2023-04-25T06:15:20;9.30;99.90
25482;DHT22;13395;50.752;4.268;2023-04-25T06:17:46;9.20;99.90
25482;DHT22;13395;50.752;4.268;2023-04-25T06:20:11;9.20;99.90
25482;DHT22;13395;50.752;4.268;2023-04-25T06:22:37;9.30;99.90
25482;DHT22;13395;50.752;4.268;2023-04-25T06:25:02;9.40;99.90
25482;DHT22;13395;50.752;4.268;2023-04-25T06:27:29;9.50;99.90
25482;DHT22;13395;50.752;4.268;2023-04-25T06:29:55;9.50;99.90
25482;DHT22;13395;50.752;4.268;2023-04-25T06:32:20;9.50;99.90
25482;DHT22;13395;50.752;4.268;2023-04-25T06:34:46;9.70;99.90
25482;DHT22;13395;50.752;4.268;2023-04-25T06:37:11;9.80;99.90
25482;DHT22;13395;50.752;4.268;2023-04-25T06:39:37;10.00;99.90
25482;DHT22;13395;50.752;4.268;2023-04-25T06:42:02;10.10;99.90
25482;DHT22;13395;50.752;4.268;2023-04-25T06:44:28;10.10;99.90
25482;DHT22;13395;50.752;4.268;2023-04-25T06:46:54;10.20;99.90
25482;DHT22;13395;50.752;4.268;2023-04-25T06:49:20;10.30;99.90
25482;DHT22;13395;50.752;4.268;2023-04-25T06:51:45;10.40;99.90
25482;DHT22;13395;50.752;4.268;2023-04-25T06:54:11;10.40;99.90
25482;DHT22;13395;50.752;4.268;2023-04-25T06:56:36;10.60;99.90
25482;DHT22;13395;50.752;4.268;2023-04-25T06:59:02;10.80;99.90
25482;DHT22;13395;50.752;4.268;2023-04-25T07:01:27;11.00;99.90
25482;DHT22;13395;50.752;4.268;2023-04-25T07:03:53;11.10;99.90
25482;DHT22;13395;50.752;4.268;2023-04-25T07:06:18;11.20;99.90
25482;DHT22;13395;50.752;4.268;2023-04-25T07:08:44;11.20;99.90
25482;DHT22;13395;50.752;4.268;2023-04-25T07:11:09;11.20;99.90
25482;DHT22;13395;50.752;4.268;2023-04-25T07:13:35;11.20;99.90
25482;DHT22;13395;50.752;4.268;2023-04-25T07:16:00;11.20;99.90
25482;DHT22;13395;50.752;4.268;2023-04-25T07:18:26;11.10;99.90
25482;DHT22;13395;50.752;4.268;2023-04-25T07:20:51;11.10;99.90
25482;DHT22;13395;50.752;4.268;2023-04-25T07:23:17;11.00;99.90
25482;DHT22;13395;50.752;4.268;2023-04-25T07:25:42;10.90;99.90
25482;DHT22;13395;50.752;4.268;2023-04-25T07:28:08;10.90;99.90
25482;DHT22;13395;50.752;4.268;2023-04-25T07:30:33;10.90;99.90
25482;DHT22;13395;50.752;4.268;2023-04-25T07:33:00;10.90;99.90
25482;DHT22;13395;50.752;4.268;2023-04-25T07:35:25;11.00;99.90
25482;DHT22;13395;50.752;4.268;2023-04-25T07:37:51;11.00;99.90
25482;DHT22;13395;50.752;4.268;2023-04-25T07:40:16;11.10;99.90
25482;DHT22;13395;50.752;4.268;2023-04-25T07:42:42;11.10;99.90
25482;DHT22;13395;50.752;4.268;2023-04-25T07:45:08;11.10;99.90
25482;DHT22;13395;50.752;4.268;2023-04-25T07:47:34;11.10;99.90
25482;DHT22;13395;50.752;4.268;2023-04-25T07:50:00;11.10;99.90
25482;DHT22;13395;50.752;4.268;2023-04-25T07:52:25;11.20;99.90
25482;DHT22;13395;50.752;4.268;2023-04-25T07:54:51;11.40;99.90
25482;DHT22;13395;50.752;4.268;2023-04-25T07:57:17;12.00;99.90
25482;DHT22;13395;50.752;4.268;2023-04-25T07:59:43;12.40;99.90
25482;DHT22;13395;50.752;4.268;2023-04-25T08:02:09;12.60;99.90
25482;DHT22;13395;50.752;4.268;2023-04-25T08:04:34;13.00;99.90
25482;DHT22;13395;50.752;4.268;2023-04-25T08:07:00;13.20;99.90
25482;DHT22;13395;50.752;4.268;2023-04-25T08:09:26;13.10;99.90
25482;DHT22;13395;50.752;4.268;2023-04-25T08:11:51;13.00;99.90
25482;DHT22;13395;50.752;4.268;2023-04-25T08:14:17;12.70;99.90
25482;DHT22;13395;50.752;4.268;2023-04-25T08:16:42;12.60;99.90
25482;DHT22;13395;50.752;4.268;2023-04-25T08:19:09;12.60;99.90
25482;DHT22;13395;50.752;4.268;2023-04-25T08:21:34;12.60;99.90
25482;DHT22;13395;50.752;4.268;2023-04-25T08:24:00;13.00;99.90
25482;DHT22;13395;50.752;4.268;2023-04-25T08:26:25;13.30;99.90
25482;DHT22;13395;50.752;4.268;2023-04-25T08:28:51;13.80;99.90
25482;DHT22;13395;50.752;4.268;2023-04-25T08:31:17;14.30;99.90
25482;DHT22;13395;50.752;4.268;2023-04-25T08:33:42;14.80;99.90
25482;DHT22;13395;50.752;4.268;2023-04-25T08:36:09;15.10;99.90
25482;DHT22;13395;50.752;4.268;2023-04-25T08:38:34;15.50;99.90
25482;DHT22;13395;50.752;4.268;2023-04-25T08:41:00;16.20;99.60
25482;DHT22;13395;50.752;4.268;2023-04-25T08:43:28;17.10;98.70
25482;DHT22;13395;50.752;4.268;2023-04-25T08:45:54;18.00;95.70
25482;DHT22;13395;50.752;4.268;2023-04-25T08:48:23;18.70;93.60
25482;DHT22;13395;50.752;4.268;2023-04-25T08:50:50;20.20;92.10
25482;DHT22;13395;50.752;4.268;2023-04-25T08:53:16;20.90;90.30
25482;DHT22;13395;50.752;4.268;2023-04-25T08:55:45;21.70;88.50
25482;DHT22;13395;50.752;4.268;2023-04-25T08:58:11;21.90;79.50
25482;DHT22;13395;50.752;4.268;2023-04-25T09:00:38;21.70;78.70
25482;DHT22;13395;50.752;4.268;2023-04-25T09:03:03;21.10;78.70
25482;DHT22;13395;50.752;4.268;2023-04-25T09:05:29;19.90;79.00
25482;DHT22;13395;50.752;4.268;2023-04-25T09:07:55;20.00;79.60
25482;DHT22;13395;50.752;4.268;2023-04-25T09:10:21;20.80;79.50
25482;DHT22;13395;50.752;4.268;2023-04-25T09:13:06;21.70;79.30
25482;DHT22;13395;50.752;4.268;2023-04-25T09:15:32;22.00;73.80
25482;DHT22;13395;50.752;4.268;2023-04-25T09:17:59;21.00;73.80
25482;DHT22;13395;50.752;4.268;2023-04-25T09:20:25;19.30;74.80
25482;DHT22;13395;50.752;4.268;2023-04-25T09:23:03;18.30;78.60
25482;DHT22;13395;50.752;4.268;2023-04-25T09:25:33;17.70;80.80
25482;DHT22;13395;50.752;4.268;2023-04-25T09:27:59;16.90;83.50
25482;DHT22;13395;50.752;4.268;2023-04-25T09:30:38;17.00;83.40
25482;DHT22;13395;50.752;4.268;2023-04-25T09:33:04;16.70;85.70
25482;DHT22;13395;50.752;4.268;2023-04-25T09:35:30;16.80;86.00
25482;DHT22;13395;50.752;4.268;2023-04-25T09:38:00;16.50;83.70
25482;DHT22;13395;50.752;4.268;2023-04-25T09:40:26;16.40;84.10
25482;DHT22;13395;50.752;4.268;2023-04-25T09:42:51;16.00;86.60
25482;DHT22;13395;50.752;4.268;2023-04-25T09:45:17;15.70;87.70
25482;DHT22;13395;50.752;4.268;2023-04-25T09:47:42;15.30;89.00
25482;DHT22;13395;50.752;4.268;2023-04-25T09:50:15;15.10;90.00
25482;DHT22;13395;50.752;4.268;2023-04-25T09:52:41;15.50;90.20
25482;DHT22;13395;50.752;4.268;2023-04-25T09:55:07;15.60;89.70
25482;DHT22;13395;50.752;4.268;2023-04-25T09:57:32;15.60;90.30
25482;DHT22;13395;50.752;4.268;2023-04-25T09:59:58;15.70;90.50
25482;DHT22;13395;50.752;4.268;2023-04-25T10:02:26;16.20;88.60
25482;DHT22;13395;50.752;4.268;2023-04-25T10:04:52;17.10;87.00
25482;DHT22;13395;50.752;4.268;2023-04-25T10:07:23;19.30;84.30
25482;DHT22;13395;50.752;4.268;2023-04-25T10:09:53;20.20;78.80
25482;DHT22;13395;50.752;4.268;2023-04-25T10:12:20;21.20;76.40
25482;DHT22;13395;50.752;4.268;2023-04-25T10:14:46;23.30;73.80
25482;DHT22;13395;50.752;4.268;2023-04-25T10:17:12;25.30;66.60
25482;DHT22;13395;50.752;4.268;2023-04-25T10:19:39;25.50;62.30
25482;DHT22;13395;50.752;4.268;2023-04-25T10:24:30;25.50;58.30
25482;DHT22;13395;50.752;4.268;2023-04-25T10:26:56;24.00;59.30
25482;DHT22;13395;50.752;4.268;2023-04-25T10:29:25;23.70;62.10
25482;DHT22;13395;50.752;4.268;2023-04-25T10:31:51;24.30;61.50
25482;DHT22;13395;50.752;4.268;2023-04-25T10:34:17;24.00;59.50
25482;DHT22;13395;50.752;4.268;2023-04-25T10:36:42;23.30;63.40
25482;DHT22;13395;50.752;4.268;2023-04-25T10:39:08;24.00;62.10
25482;DHT22;13395;50.752;4.268;2023-04-25T10:41:46;25.60;56.80
25482;DHT22;13395;50.752;4.268;2023-04-25T10:44:13;25.80;53.70
25482;DHT22;13395;50.752;4.268;2023-04-25T10:46:39;25.90;54.80
25482;DHT22;13395;50.752;4.268;2023-04-25T10:49:04;24.60;54.70
25482;DHT22;13395;50.752;4.268;2023-04-25T10:51:33;23.30;55.80
25482;DHT22;13395;50.752;4.268;2023-04-25T10:54:00;22.40;56.00
25482;DHT22;13395;50.752;4.268;2023-04-25T10:56:27;20.90;59.40
25482;DHT22;13395;50.752;4.268;2023-04-25T10:59:12;19.20;62.30
25482;DHT22;13395;50.752;4.268;2023-04-25T11:01:39;18.10;70.90
25482;DHT22;13395;50.752;4.268;2023-04-25T11:04:05;16.60;77.80
25482;DHT22;13395;50.752;4.268;2023-04-25T11:08:57;15.10;84.70
25482;DHT22;13395;50.752;4.268;2023-04-25T11:11:22;14.40;87.70
25482;DHT22;13395;50.752;4.268;2023-04-25T11:13:50;14.00;90.00
25482;DHT22;13395;50.752;4.268;2023-04-25T11:16:16;13.40;91.30
25482;DHT22;13395;50.752;4.268;2023-04-25T11:18:42;12.90;92.20
25482;DHT22;13395;50.752;4.268;2023-04-25T11:21:08;12.80;92.70
25482;DHT22;13395;50.752;4.268;2023-04-25T11:23:34;12.90;93.10
25482;DHT22;13395;50.752;4.268;2023-04-25T11:25:59;12.80;93.30
25482;DHT22;13395;50.752;4.268;2023-04-25T11:28:26;12.60;93.80
25482;DHT22;13395;50.752;4.268;2023-04-25T11:30:52;12.50;94.70
25482;DHT22;13395;50.752;4.268;2023-04-25T11:33:17;12.50;94.80
25482;DHT22;13395;50.752;4.268;2023-04-25T11:35:43;12.50;94.80
25482;DHT22;13395;50.752;4.268;2023-04-25T11:38:09;12.60;94.80
25482;DHT22;13395;50.752;4.268;2023-04-25T11:40:35;13.00;94.20
25482;DHT22;13395;50.752;4.268;2023-04-25T11:43:01;13.10;93.70
25482;DHT22;13395;50.752;4.268;2023-04-25T11:45:27;13.20;92.80
25482;DHT22;13395;50.752;4.268;2023-04-25T11:47:52;13.40;92.90
25482;DHT22;13395;50.752;4.268;2023-04-25T11:50:18;13.20;93.50
25482;DHT22;13395;50.752;4.268;2023-04-25T11:52:47;13.20;95.00
25482;DHT22;13395;50.752;4.268;2023-04-25T11:55:17;13.10;95.30
25482;DHT22;13395;50.752;4.268;2023-04-25T11:57:43;13.20;95.40
25482;DHT22;13395;50.752;4.268;2023-04-25T12:00:16;13.40;95.10
25482;DHT22;13395;50.752;4.268;2023-04-25T12:02:43;13.60;94.30
25482;DHT22;13395;50.752;4.268;2023-04-25T12:05:09;13.60;92.90
25482;DHT22;13395;50.752;4.268;2023-04-25T12:07:35;14.00;94.10
25482;DHT22;13395;50.752;4.268;2023-04-25T12:10:04;15.40;91.70
25482;DHT22;13395;50.752;4.268;2023-04-25T12:12:32;17.80;85.30
25482;DHT22;13395;50.752;4.268;2023-04-25T12:15:08;18.90;77.70
25482;DHT22;13395;50.752;4.268;2023-04-25T12:17:34;19.20;72.20
25482;DHT22;13395;50.752;4.268;2023-04-25T12:20:00;18.20;70.90
25482;DHT22;13395;50.752;4.268;2023-04-25T12:22:30;18.40;72.10
25482;DHT22;13395;50.752;4.268;2023-04-25T12:24:57;19.40;72.10
25482;DHT22;13395;50.752;4.268;2023-04-25T12:27:23;20.60;68.70
25482;DHT22;13395;50.752;4.268;2023-04-25T12:29:51;21.20;65.80
25482;DHT22;13395;50.752;4.268;2023-04-25T12:32:17;22.00;63.50
25482;DHT22;13395;50.752;4.268;2023-04-25T12:34:43;23.00;62.00
25482;DHT22;13395;50.752;4.268;2023-04-25T12:37:10;24.00;60.40
25482;DHT22;13395;50.752;4.268;2023-04-25T12:39:35;24.40;58.30
25482;DHT22;13395;50.752;4.268;2023-04-25T12:42:01;24.50;57.00
25482;DHT22;13395;50.752;4.268;2023-04-25T12:44:27;23.30;59.50
25482;DHT22;13395;50.752;4.268;2023-04-25T12:46:53;22.00;59.30
25482;DHT22;13395;50.752;4.268;2023-04-25T12:49:19;21.20;61.00
25482;DHT22;13395;50.752;4.268;2023-04-25T12:51:45;21.50;60.80
25482;DHT22;13395;50.752;4.268;2023-04-25T12:54:10;22.60;61.20
25482;DHT22;13395;50.752;4.268;2023-04-25T12:56:36;23.40;57.50
25482;DHT22;13395;50.752;4.268;2023-04-25T12:59:02;23.70;56.10
25482;DHT22;13395;50.752;4.268;2023-04-25T13:01:30;24.20;55.60
25482;DHT22;13395;50.752;4.268;2023-04-25T13:03:56;24.70;53.70
25482;DHT22;13395;50.752;4.268;2023-04-25T13:06:21;23.10;53.50
25482;DHT22;13395;50.752;4.268;2023-04-25T13:08:47;22.10;54.20
25482;DHT22;13395;50.752;4.268;2023-04-25T13:11:12;21.50;57.90
25482;DHT22;13395;50.752;4.268;2023-04-25T13:13:40;20.20;58.80
25482;DHT22;13395;50.752;4.268;2023-04-25T13:16:06;19.40;60.40
25482;DHT22;13395;50.752;4.268;2023-04-25T13:18:32;19.00;63.60
25482;DHT22;13395;50.752;4.268;2023-04-25T13:20:58;18.30;64.10
25482;DHT22;13395;50.752;4.268;2023-04-25T13:23:25;17.70;66.90
25482;DHT22;13395;50.752;4.268;2023-04-25T13:25:51;17.40;69.00
25482;DHT22;13395;50.752;4.268;2023-04-25T13:28:16;17.30;71.20
25482;DHT22;13395;50.752;4.268;2023-04-25T13:30:42;17.30;72.70
25482;DHT22;13395;50.752;4.268;2023-04-25T13:33:08;16.80;72.40
25482;DHT22;13395;50.752;4.268;2023-04-25T13:35:34;16.50;73.20
25482;DHT22;13395;50.752;4.268;2023-04-25T13:37:59;16.10;72.60
25482;DHT22;13395;50.752;4.268;2023-04-25T13:40:25;15.70;75.10
25482;DHT22;13395;50.752;4.268;2023-04-25T13:42:52;15.50;73.60
25482;DHT22;13395;50.752;4.268;2023-04-25T13:45:17;15.40;72.80
25482;DHT22;13395;50.752;4.268;2023-04-25T13:47:43;15.60;72.00
25482;DHT22;13395;50.752;4.268;2023-04-25T13:50:08;15.90;70.70
25482;DHT22;13395;50.752;4.268;2023-04-25T13:52:34;15.80;71.00
25482;DHT22;13395;50.752;4.268;2023-04-25T13:55:00;16.10;71.60
25482;DHT22;13395;50.752;4.268;2023-04-25T13:57:28;16.10;68.80
25482;DHT22;13395;50.752;4.268;2023-04-25T13:59:53;15.80;68.80
25482;DHT22;13395;50.752;4.268;2023-04-25T14:02:19;15.50;69.70
25482;DHT22;13395;50.752;4.268;2023-04-25T14:04:44;15.50;70.20
25482;DHT22;13395;50.752;4.268;2023-04-25T14:07:10;15.70;69.40
25482;DHT22;13395;50.752;4.268;2023-04-25T14:09:36;15.90;71.10
25482;DHT22;13395;50.752;4.268;2023-04-25T14:12:02;15.60;70.00
25482;DHT22;13395;50.752;4.268;2023-04-25T14:14:27;15.30;71.30
25482;DHT22;13395;50.752;4.268;2023-04-25T14:16:53;15.30;74.10
25482;DHT22;13395;50.752;4.268;2023-04-25T14:19:19;15.20;75.50
25482;DHT22;13395;50.752;4.268;2023-04-25T14:21:45;15.10;76.10
25482;DHT22;13395;50.752;4.268;2023-04-25T14:24:11;15.20;78.20
25482;DHT22;13395;50.752;4.268;2023-04-25T14:26:37;15.30;76.40
25482;DHT22;13395;50.752;4.268;2023-04-25T14:29:03;15.20;75.90
25482;DHT22;13395;50.752;4.268;2023-04-25T14:31:29;15.40;76.40
25482;DHT22;13395;50.752;4.268;2023-04-25T14:33:55;15.40;77.10
25482;DHT22;13395;50.752;4.268;2023-04-25T14:36:20;15.40;77.50
25482;DHT22;13395;50.752;4.268;2023-04-25T14:38:46;15.40;74.60
25482;DHT22;13395;50.752;4.268;2023-04-25T14:41:11;15.30;76.20
25482;DHT22;13395;50.752;4.268;2023-04-25T14:43:37;15.40;74.20
25482;DHT22;13395;50.752;4.268;2023-04-25T14:46:05;15.50;76.00
25482;DHT22;13395;50.752;4.268;2023-04-25T14:48:30;15.60;75.60
25482;DHT22;13395;50.752;4.268;2023-04-25T14:50:56;15.60;74.70
25482;DHT22;13395;50.752;4.268;2023-04-25T14:53:22;15.70;73.70
25482;DHT22;13395;50.752;4.268;2023-04-25T14:55:47;15.40;72.40
25482;DHT22;13395;50.752;4.268;2023-04-25T14:58:14;15.40;74.00
25482;DHT22;13395;50.752;4.268;2023-04-25T15:00:39;15.10;75.70
25482;DHT22;13395;50.752;4.268;2023-04-25T15:03:05;15.20;76.40
25482;DHT22;13395;50.752;4.268;2023-04-25T15:05:34;15.50;75.50
25482;DHT22;13395;50.752;4.268;2023-04-25T15:07:59;15.50;75.30
25482;DHT22;13395;50.752;4.268;2023-04-25T15:10:25;15.40;75.90
25482;DHT22;13395;50.752;4.268;2023-04-25T15:12:51;15.20;76.40
25482;DHT22;13395;50.752;4.268;2023-04-25T15:15:18;15.00;76.90
25482;DHT22;13395;50.752;4.268;2023-04-25T15:17:44;14.90;76.80
25482;DHT22;13395;50.752;4.268;2023-04-25T15:20:10;14.90;77.50
25482;DHT22;13395;50.752;4.268;2023-04-25T15:22:36;14.80;74.80
25482;DHT22;13395;50.752;4.268;2023-04-25T15:25:02;14.70;76.70
25482;DHT22;13395;50.752;4.268;2023-04-25T15:27:28;14.50;76.70
25482;DHT22;13395;50.752;4.268;2023-04-25T15:29:54;14.50;76.30
25482;DHT22;13395;50.752;4.268;2023-04-25T15:32:19;14.50;76.10
25482;DHT22;13395;50.752;4.268;2023-04-25T15:34:46;14.50;75.80